Time;durP1;ratioP1;P1;durP2;ratioP2;P2;SDS_P1;SDS_P2;PMS_P1;PMS_P2;Temp;Humidity;BMP_temperature;BMP_pressure;BME280_temperature;BME280_humidity;BME280_pressure;Samples;Min_cycle;Max_cycle;Signal;HPM_P1;HPM_P2
2022/07/07 00:01:53;;;;;;;4.00;3.63;;;19.80;99.30;;;;;;4925021;29;20463;-92
2022/07/07 00:04:33;;;;;;;7.60;3.27;;;;;;;;;;4927212;29;20604;-94
2022/07/07 00:07:02;;;;;;;3.50;3.37;;;20.50;99.20;;;;;;4917687;29;20415;-94
2022/07/07 00:09:31;;;;;;;3.83;3.63;;;;;;;;;;4939432;29;20435;-92
2022/07/07 00:11:58;;;;;;;4.30;4.03;;;;;;;;;;4936980;29;20434;-94
2022/07/07 00:14:24;;;;;;;3.83;3.50;;;19.70;99.90;;;;;;4939736;29;20423;-93
2022/07/07 00:16:53;;;;;;;3.83;3.30;;;19.70;99.90;;;;;;4937186;29;20793;-93
2022/07/07 00:19:27;;;;;;;6.20;3.40;;;19.70;99.90;;;;;;4935010;29;20525;-93
2022/07/07 00:21:53;;;;;;;3.67;3.47;;;19.60;99.90;;;;;;4917148;29;20511;-92
2022/07/07 00:27:37;;;;;;;3.20;3.20;;;19.70;99.30;;;;;;4929109;29;20431;-93
2022/07/07 00:30:21;;;;;;;4.20;3.90;;;19.80;99.90;;;;;;4946107;29;20432;-93
2022/07/07 00:33:07;;;;;;;4.40;4.10;;;19.80;99.90;;;;;;4940525;29;20767;-94
2022/07/07 00:35:39;;;;;;;4.40;4.10;;;;;;;;;;4903148;29;20434;-92
2022/07/07 00:38:05;;;;;;;4.10;3.53;;;;;;;;;;4918712;29;20769;-93
2022/07/07 00:40:36;;;;;;;4.13;4.00;;;19.70;99.90;;;;;;4937082;29;20482;-92
2022/07/07 00:43:05;;;;;;;4.20;4.00;;;19.50;99.90;;;;;;4914455;29;20439;-92
2022/07/07 00:45:49;;;;;;;3.90;3.80;;;19.60;99.90;;;;;;4940218;29;20451;-93
2022/07/07 00:48:15;;;;;;;4.27;4.13;;;;;;;;;;4933733;29;20427;-92
2022/07/07 00:50:46;;;;;;;4.20;4.03;;;19.60;99.90;;;;;;4956673;29;20427;-92
2022/07/07 00:53:28;;;;;;;3.57;3.47;;;;;;;;;;4922976;29;20447;-92
2022/07/07 00:55:54;;;;;;;4.27;3.57;;;;;;;;;;4926145;29;20686;-93
2022/07/07 00:58:20;;;;;;;5.47;3.57;;;;;;;;;;4948538;29;20442;-93
2022/07/07 01:00:59;;;;;;;4.13;3.90;;;19.40;99.90;;;;;;4939902;29;20829;-93
2022/07/07 01:03:25;;;;;;;3.60;3.50;;;19.30;99.90;;;;;;4957836;29;20505;-92
2022/07/07 01:06:06;;;;;;;5.13;3.70;;;19.40;99.90;;;;;;4933336;29;20514;-93
2022/07/07 01:09:06;;;;;;;4.57;3.40;;;19.20;99.90;;;;;;4904261;29;20447;-92
2022/07/07 01:11:55;;;;;;;3.83;3.63;;;20.10;99.90;;;;;;4939860;28;20439;-92
2022/07/07 01:14:22;;;;;;;3.50;3.40;;;19.50;99.90;;;;;;4927354;29;20444;-93
2022/07/07 01:16:48;;;;;;;3.83;3.73;;;;;;;;;;4922518;29;20456;-94
2022/07/07 01:19:14;;;;;;;3.83;3.73;;;;;;;;;;4930689;29;20447;-93
2022/07/07 01:22:06;;;;;;;5.97;4.07;;;19.30;99.90;;;;;;4916459;29;20518;-92
2022/07/07 01:24:35;;;;;;;4.03;3.83;;;19.40;99.90;;;;;;4931934;29;20420;-92
2022/07/07 01:27:21;;;;;;;4.63;4.23;;;19.40;99.90;;;;;;4917587;29;20498;-93
2022/07/07 01:29:49;;;;;;;4.50;4.20;;;19.30;99.90;;;;;;4915498;29;20431;-93
2022/07/07 01:36:15;;;;;;;4.87;4.50;;;19.20;99.90;;;;;;4919948;29;20420;-92
2022/07/07 01:38:45;;;;;;;4.50;4.20;;;19.20;99.90;;;;;;4889813;29;20429;-91
2022/07/07 01:41:14;;;;;;;8.87;5.37;;;19.10;99.90;;;;;;4880081;29;20481;-91
2022/07/07 01:44:12;;;;;;;5.10;4.80;;;19.20;99.90;;;;;;4934548;29;20511;-91
2022/07/07 01:46:51;;;;;;;5.00;4.60;;;19.20;99.90;;;;;;4877319;29;20422;-93
2022/07/07 01:55:06;;;;;;;5.17;4.90;;;19.20;99.90;;;;;;5010292;23;20512;-92
2022/07/07 02:18:11;;;;;;;6.57;5.97;;;19.00;99.90;;;;;;4966691;28;20502;-93
2022/07/07 02:23:25;;;;;;;5.80;5.50;;;19.10;99.90;;;;;;5881649;23;20475;-91
2022/07/07 02:25:59;;;;;;;5.17;4.93;;;19.00;99.90;;;;;;4979638;28;20454;-92
2022/07/07 02:28:43;;;;;;;6.00;5.70;;;19.00;99.90;;;;;;4958850;29;20441;-93
2022/07/07 02:31:55;;;;;;;5.70;5.20;;;19.00;99.90;;;;;;4958958;29;20462;-92
2022/07/07 03:02:10;;;;;;;5.00;4.80;;;18.60;99.90;;;;;;5291501;23;20468;-93
2022/07/07 03:33:07;;;;;;;5.57;5.33;;;18.40;99.90;;;;;;5771917;22;20578;-93
2022/07/07 03:38:11;;;;;;;6.03;5.50;;;;;;;;;;6021593;23;21196;-91
2022/07/07 03:43:16;;;;;;;5.33;5.20;;;;;;;;;;5794026;22;20488;-91
2022/07/07 03:45:52;;;;;;;5.87;5.57;;;18.10;99.90;;;;;;5020159;23;20476;-90
2022/07/07 03:48:31;;;;;;;5.87;5.43;;;18.00;99.90;;;;;;4992989;28;20429;-92
2022/07/07 03:51:13;;;;;;;;;;;;;;;;;;;;;
2022/07/07 03:56:34;;;;;;;5.50;5.20;;;18.10;99.90;;;;;;5329946;23;20504;-91
2022/07/07 03:59:06;;;;;;;6.97;6.23;;;;;;;;;;4972793;29;20424;-90
2022/07/07 04:01:45;;;;;;;7.10;5.60;;;18.00;99.90;;;;;;4972237;28;20471;-93
2022/07/07 04:04:48;;;;;;;6.27;5.97;;;18.00;99.90;;;;;;4957377;28;20438;-92
2022/07/07 04:07:17;;;;;;;5.90;5.60;;;17.90;99.90;;;;;;5143502;23;20499;-94
2022/07/07 04:09:43;;;;;;;5.80;5.47;;;;;;;;;;4989380;28;20437;-90
2022/07/07 04:12:30;;;;;;;5.80;5.30;;;18.00;99.90;;;;;;4970575;28;20454;-90
2022/07/07 04:20:35;;;;;;;6.77;5.50;;;18.10;99.90;;;;;;5431331;23;20495;-88
2022/07/07 04:23:02;;;;;;;5.70;5.50;;;;;;;;;;4970268;28;20468;-92
2022/07/07 04:25:28;;;;;;;5.57;5.00;;;;;;;;;;4996743;28;20398;-93
2022/07/07 04:28:27;;;;;;;5.80;5.60;;;18.20;99.90;;;;;;4997760;28;20480;-94
2022/07/07 04:30:56;;;;;;;5.57;5.27;;;18.20;99.90;;;;;;4958337;28;20527;-92
2022/07/07 04:33:32;;;;;;;5.40;5.00;;;18.20;99.90;;;;;;4993824;28;20513;-94
2022/07/07 04:36:06;;;;;;;5.47;5.13;;;18.20;99.90;;;;;;4970297;28;20446;-93
2022/07/07 04:38:32;;;;;;;5.30;5.00;;;;;;;;;;4960614;28;20460;-93
2022/07/07 04:40:58;;;;;;;5.77;5.40;;;18.20;99.90;;;;;;4996107;28;20460;-93
2022/07/07 04:44:06;;;;;;;5.40;5.20;;;18.30;99.90;;;;;;5012212;23;20485;-93
2022/07/07 04:46:40;;;;;;;5.57;5.20;;;18.10;99.90;;;;;;4974522;28;20493;-92
2022/07/07 04:52:20;;;;;;;7.20;6.80;;;18.00;99.90;;;;;;4966275;28;20429;-90
2022/07/07 04:54:48;;;;;;;8.47;7.37;;;18.10;99.90;;;;;;4968591;29;20422;-91
2022/07/07 04:57:14;;;;;;;7.77;7.17;;;;;;;;;;4978718;28;20633;-89
2022/07/07 04:59:40;;;;;;;9.03;8.33;;;;;;;;;;4956153;28;20862;-90
2022/07/07 05:02:07;;;;;;;9.67;8.57;;;;;;;;;;4973239;28;21012;-88
2022/07/07 05:04:54;;;;;;;9.87;9.00;;;17.50;99.90;;;;;;4983259;28;20421;-90
2022/07/07 05:07:27;;;;;;;12.30;9.20;;;;;;;;;;4951606;29;20411;-90
2022/07/07 05:10:27;;;;;;;9.77;8.87;;;;;;;;;;4970310;28;20537;-88
2022/07/07 05:12:53;;;;;;;15.20;9.53;;;;;;;;;;4971017;29;20414;-90
2022/07/07 05:15:38;;;;;;;9.70;9.10;;;;;;;;;;4978963;28;20489;-90
2022/07/07 05:18:32;;;;;;;10.63;9.70;;;;;;;;;;4967075;29;20419;-91
2022/07/07 05:20:59;;;;;;;9.87;9.00;;;;;;;;;;4971489;28;20477;-89
2022/07/07 05:23:29;;;;;;;10.73;9.67;;;;;;;;;;4976200;28;20460;-89
2022/07/07 05:26:03;;;;;;;9.33;8.77;;;17.40;99.90;;;;;;4952725;29;20407;-90
2022/07/07 05:28:40;;;;;;;;;;;;;;;;;;;;;
2022/07/07 05:31:35;;;;;;;8.77;8.30;;;;;;;;;;4952106;28;20514;-91
2022/07/07 05:34:01;;;;;;;9.73;8.90;;;;;;;;;;4967272;28;20432;-89
2022/07/07 05:36:33;;;;;;;9.10;8.50;;;;;;;;;;4973000;28;20426;-92
2022/07/07 05:38:59;;;;;;;8.83;8.20;;;;;;;;;;4989701;28;21038;-91
2022/07/07 05:41:30;;;;;;;9.50;8.70;;;;;;;;;;4987189;28;20464;-92
2022/07/07 05:43:56;;;;;;;8.83;8.13;;;;;;;;;;4993786;28;20473;-91
2022/07/07 05:46:22;;;;;;;9.10;8.57;;;;;;;;;;4964359;28;20452;-91
2022/07/07 05:48:48;;;;;;;8.13;7.70;;;;;;;;;;4990590;28;20455;-88
2022/07/07 05:51:19;;;;;;;8.33;7.80;;;;;;;;;;4962930;28;20434;-93
2022/07/07 05:53:45;;;;;;;9.20;8.37;;;;;;;;;;4969933;28;20450;-92
2022/07/07 05:56:11;;;;;;;7.57;6.87;;;;;;;;;;4949577;28;20438;-87
2022/07/07 05:58:37;;;;;;;8.43;7.67;;;;;;;;;;4965431;28;20464;-88
2022/07/07 06:01:03;;;;;;;7.50;7.20;;;;;;;;;;4940976;28;20469;-87
2022/07/07 06:03:29;;;;;;;7.00;6.60;;;;;;;;;;4972308;28;20450;-87
2022/07/07 06:05:55;;;;;;;5.97;5.77;;;;;;;;;;4954511;28;20936;-88
2022/07/07 06:08:21;;;;;;;6.70;6.17;;;;;;;;;;4973698;28;20438;-87
2022/07/07 06:10:47;;;;;;;7.10;6.63;;;;;;;;;;4970073;28;20446;-88
2022/07/07 06:13:13;;;;;;;7.80;6.17;;;;;;;;;;4963025;28;20650;-88
2022/07/07 06:15:39;;;;;;;5.57;5.20;;;;;;;;;;4971205;28;20760;-87
2022/07/07 06:18:05;;;;;;;6.47;5.87;;;;;;;;;;4943789;28;20452;-88
2022/07/07 06:20:31;;;;;;;5.43;5.13;;;;;;;;;;4936657;28;20446;-88
2022/07/07 06:22:57;;;;;;;5.80;5.50;;;;;;;;;;4968311;28;20476;-87
2022/07/07 06:25:23;;;;;;;6.07;5.50;;;;;;;;;;4953467;28;20424;-87
2022/07/07 06:27:49;;;;;;;6.20;5.90;;;;;;;;;;4955450;28;20493;-87
2022/07/07 06:30:15;;;;;;;6.10;5.60;;;;;;;;;;4954788;28;20421;-87
2022/07/07 06:32:41;;;;;;;5.90;5.60;;;;;;;;;;4941730;28;20452;-87
2022/07/07 06:35:08;;;;;;;6.24;5.04;;;;;;;;;;4619829;28;10000816;-85
2022/07/07 06:37:34;;;;;;;6.80;6.30;;;;;;;;;;4950859;29;20476;-87
2022/07/07 06:40:01;;;;;;;6.00;5.50;;;;;;;;;;4963992;28;20466;-86
2022/07/07 06:42:27;;;;;;;5.87;5.67;;;;;;;;;;4933839;28;20473;-87
2022/07/07 06:44:52;;;;;;;5.80;5.70;;;;;;;;;;4953679;28;20422;-88
2022/07/07 06:47:21;;;;;;;5.37;5.17;;;;;;;;;;4934886;29;20406;-86
2022/07/07 06:49:47;;;;;;;7.77;7.00;;;;;;;;;;4937169;29;20450;-87
2022/07/07 06:52:17;;;;;;;5.20;4.80;;;;;;;;;;4953082;28;20889;-88
2022/07/07 06:54:43;;;;;;;6.90;6.40;;;;;;;;;;4928001;29;20457;-86
2022/07/07 06:57:09;;;;;;;7.10;6.50;;;;;;;;;;4934727;29;20418;-88
2022/07/07 06:59:35;;;;;;;7.10;6.40;;;;;;;;;;4931553;29;21081;-86
2022/07/07 07:02:02;;;;;;;7.03;6.70;;;;;;;;;;4938911;29;20500;-86
2022/07/07 07:04:28;;;;;;;6.57;6.17;;;;;;;;;;4953941;28;20486;-87
2022/07/07 07:06:54;;;;;;;6.17;5.83;;;;;;;;;;4956378;28;20791;-87
2022/07/07 07:09:20;;;;;;;5.63;5.33;;;;;;;;;;4928015;29;20441;-86
2022/07/07 07:11:49;;;;;;;5.30;5.17;;;;;;;;;;4950857;28;20446;-88
2022/07/07 07:14:15;;;;;;;5.47;5.10;;;;;;;;;;4946569;28;20991;-87
2022/07/07 07:16:41;;;;;;;5.07;4.80;;;;;;;;;;4933373;29;20450;-88
2022/07/07 07:19:08;;;;;;;4.93;4.60;;;;;;;;;;4950249;28;20488;-88
2022/07/07 07:21:34;;;;;;;4.87;4.57;;;;;;;;;;4931150;29;20544;-87
2022/07/07 07:24:00;;;;;;;5.13;5.00;;;;;;;;;;4945908;28;20454;-87
2022/07/07 07:26:28;;;;;;;5.53;5.30;;;;;;;;;;4947650;28;20442;-87
2022/07/07 07:28:54;;;;;;;5.07;4.90;;;;;;;;;;4951335;28;20481;-87
2022/07/07 07:31:20;;;;;;;5.67;4.47;;;;;;;;;;4934806;29;20466;-87
2022/07/07 07:33:47;;;;;;;4.13;4.00;;;;;;;;;;4927603;29;20447;-88
2022/07/07 07:36:13;;;;;;;2.73;2.53;;;;;;;;;;4948782;28;20752;-88
2022/07/07 07:38:39;;;;;;;1.77;1.70;;;;;;;;;;4928986;29;20477;-86
2022/07/07 07:41:06;;;;;;;1.40;1.40;;;;;;;;;;4947168;28;20467;-87
2022/07/07 07:43:38;;;;;;;1.70;1.70;;;;;;;;;;4943384;29;20490;-88
2022/07/07 07:46:04;;;;;;;2.53;1.60;;;;;;;;;;4948331;28;20446;-88
2022/07/07 07:48:30;;;;;;;1.40;1.40;;;;;;;;;;4972390;28;20438;-89
2022/07/07 07:51:13;;;;;;;1.40;1.30;;;;;;;;;;4949480;28;21038;-88
2022/07/07 07:53:39;;;;;;;1.90;1.90;;;;;;;;;;4953073;28;20520;-89
2022/07/07 07:56:05;;;;;;;2.23;1.73;;;;;;;;;;4976088;28;20449;-87
2022/07/07 07:58:31;;;;;;;1.43;1.40;;;;;;;;;;4950775;29;20414;-87
2022/07/07 08:00:57;;;;;;;3.23;1.50;;;;;;;;;;4951889;28;20562;-84
2022/07/07 08:03:23;;;;;;;2.57;1.20;;;;;;;;;;4953071;28;20433;-84
2022/07/07 08:05:49;;;;;;;2.63;1.30;;;;;;;;;;4949809;28;20541;-84
2022/07/07 08:08:15;;;;;;;1.40;1.27;;;;;;;;;;4957165;28;20461;-84
2022/07/07 08:10:41;;;;;;;4.13;1.70;;;;;;;;;;4950152;28;20462;-84
2022/07/07 08:13:07;;;;;;;1.47;1.47;;;;;;;;;;4965985;28;20796;-85
2022/07/07 08:15:33;;;;;;;1.20;1.17;;;;;;;;;;4957263;28;20584;-84
2022/07/07 08:17:59;;;;;;;2.50;1.30;;;;;;;;;;4956884;28;20481;-84
2022/07/07 08:20:26;;;;;;;2.63;1.27;;;;;;;;;;4960511;28;20484;-84
2022/07/07 08:22:52;;;;;;;4.93;2.30;;;;;;;;;;4974258;28;20611;-83
2022/07/07 08:25:18;;;;;;;1.97;1.80;;;;;;;;;;4949079;28;20541;-86
2022/07/07 08:27:44;;;;;;;1.90;1.77;;;;;;;;;;4957604;28;20434;-86
2022/07/07 08:30:10;;;;;;;2.27;1.60;;;;;;;;;;4953906;28;20577;-86
2022/07/07 08:32:37;;;;;;;2.20;1.97;;;;;;;;;;4950010;28;20967;-85
2022/07/07 08:35:03;;;;;;;3.23;1.60;;;;;;;;;;4956374;28;20446;-85
2022/07/07 08:37:29;;;;;;;1.30;1.20;;;;;;;;;;4948572;29;20878;-86
2022/07/07 08:39:55;;;;;;;3.80;1.33;;;;;;;;;;4953876;28;20535;-85
2022/07/07 08:42:21;;;;;;;5.00;2.43;;;;;;;;;;4949708;28;20485;-85
2022/07/07 08:44:47;;;;;;;2.83;2.63;;;;;;;;;;4940537;28;20457;-86
2022/07/07 08:47:13;;;;;;;4.13;1.70;;;;;;;;;;4941507;29;20506;-86
2022/07/07 08:49:39;;;;;;;1.30;1.30;;;;;;;;;;4938645;28;20479;-87
2022/07/07 08:52:05;;;;;;;1.60;1.07;;;;;;;;;;4936703;29;20857;-86
2022/07/07 08:54:39;;;;;;;3.67;1.60;;;;;;;;;;4936969;28;20442;-86
2022/07/07 08:57:06;;;;;;;3.97;1.90;;;;;;;;;;4938019;29;20415;-87
2022/07/07 08:59:35;;;;;;;2.43;1.60;;;;;;;;;;4931998;28;20441;-86
2022/07/07 09:02:12;;;;;;;1.53;1.37;;;;;;;;;;4932146;29;20484;-86
2022/07/07 09:04:38;;;;;;;1.80;1.17;;;;;;;;;;4950819;28;20476;-85
2022/07/07 09:07:05;;;;;;;2.73;1.03;;;;;;;;;;4933355;29;20873;-85
2022/07/07 09:09:37;;;;;;;2.20;2.00;;;;;;;;;;4951318;28;20420;-86
2022/07/07 09:12:04;;;;;;;1.07;0.80;;;;;;;;;;4949918;28;20179;-84
2022/07/07 09:14:37;;;;;;;5.10;1.77;;;;;;;;;;4952723;28;20472;-86
2022/07/07 09:17:04;;;;;;;3.27;1.30;;;;;;;;;;4952840;28;20959;-86
2022/07/07 09:19:30;;;;;;;1.50;1.40;;;;;;;;;;4936593;28;20980;-85
2022/07/07 09:21:56;;;;;;;2.50;1.70;;;;;;;;;;4934674;29;20995;-85
2022/07/07 09:24:22;;;;;;;2.17;2.00;;;;;;;;;;4942915;28;20539;-85
2022/07/07 09:26:54;;;;;;;3.00;2.10;;;;;;;;;;4932948;29;20549;-86
2022/07/07 09:29:22;;;;;;;3.50;2.03;;;;;;;;;;4948784;28;20466;-84
2022/07/07 09:31:52;;;;;;;2.40;2.20;;;;;;;;;;4940500;29;20537;-86
2022/07/07 09:34:22;;;;;;;2.63;1.90;;;;;;;;;;4963436;29;20431;-94
2022/07/07 09:39:46;;;;;;;1.87;1.50;;;;;;;;;;4970775;29;20445;-94
2022/07/07 09:42:22;;;;;;;1.63;1.40;;;;;;;;;;4952337;29;20486;-90
2022/07/07 09:44:58;;;;;;;2.10;1.60;;;;;;;;;;4958546;28;20492;-91
2022/07/07 09:47:27;;;;;;;1.40;1.10;;;;;;;;;;4955905;28;20836;-91
2022/07/07 09:50:06;;;;;;;1.40;1.30;;;;;;;;;;4975418;28;20437;-92
2022/07/07 09:52:36;;;;;;;0.73;0.73;;;;;;;;;;4974067;28;20477;-93
2022/07/07 09:55:08;;;;;;;1.97;1.03;;;;;;;;;;4990398;28;20413;-89
2022/07/07 09:57:34;;;;;;;0.97;0.97;;;;;;;;;;4963455;28;20444;-91
2022/07/07 10:00:05;;;;;;;2.63;1.30;;;;;;;;;;4965206;28;20553;-89
2022/07/07 10:02:32;;;;;;;1.10;1.10;;;;;;;;;;4962343;29;20462;-93
2022/07/07 10:04:59;;;;;;;0.73;0.73;;;;;;;;;;4957491;28;20925;-91
2022/07/07 10:07:27;;;;;;;2.10;1.20;;;;;;;;;;4955364;28;20506;-93
2022/07/07 10:10:04;;;;;;;0.93;0.80;;;;;;;;;;4978403;28;20506;-93
2022/07/07 10:12:33;;;;;;;1.07;0.90;;;;;;;;;;4949086;28;20468;-90
2022/07/07 10:15:00;;;;;;;0.90;0.90;;;;;;;;;;4986413;28;20450;-89
2022/07/07 10:17:30;;;;;;;1.03;1.03;;;;;;;;;;4988427;28;20908;-92
2022/07/07 10:20:03;;;;;;;0.90;0.90;;;;;;;;;;4987747;28;20436;-90
2022/07/07 10:22:31;;;;;;;1.10;1.10;;;;;;;;;;4964179;28;20884;-88
2022/07/07 10:24:59;;;;;;;1.63;1.20;;;;;;;;;;4946514;29;20418;-89
2022/07/07 10:27:39;;;;;;;1.40;1.30;;;;;;;;;;4999855;28;20448;-90
2022/07/07 10:30:06;;;;;;;1.00;1.00;;;;;;;;;;4948415;28;20576;-90
2022/07/07 10:32:37;;;;;;;1.10;1.10;;;;;;;;;;5007151;28;20445;-88
2022/07/07 10:35:40;;;;;;;2.40;2.20;;;;;;;;;;4933449;28;20441;-89
2022/07/07 10:38:09;;;;;;;1.27;1.17;;;;;;;;;;4973617;28;20430;-92
2022/07/07 10:40:43;;;;;;;1.07;1.07;;;;;;;;;;4985100;28;20434;-88
2022/07/07 10:43:12;;;;;;;0.70;0.70;;;;;;;;;;4966797;28;20485;-85
2022/07/07 10:46:04;;;;;;;1.40;1.23;;;;;;;;;;4950772;29;20453;-89
2022/07/07 10:48:51;;;;;;;1.20;1.20;;;;;;;;;;4952824;29;20461;-91
2022/07/07 10:51:21;;;;;;;2.07;1.97;;;;;;;;;;4979000;28;20449;-90
2022/07/07 10:54:06;;;;;;;0.97;0.97;;;;;;;;;;4939900;28;20474;-90
2022/07/07 10:56:51;;;;;;;1.03;1.03;;;;;;;;;;4968832;28;20567;-91
2022/07/07 10:59:21;;;;;;;1.70;1.63;;;;;;;;;;4962050;28;20438;-89
2022/07/07 11:02:06;;;;;;;1.33;1.23;;;;;;;;;;4941433;28;20466;-88
2022/07/07 11:04:59;;;;;;;3.97;1.80;;;;;;;;;;4954901;28;20958;-88
2022/07/07 11:07:36;;;;;;;1.10;1.10;;;;;;;;;;4928153;29;20431;-88
2022/07/07 11:10:18;;;;;;;1.27;1.17;;;;;;;;;;4934494;29;20410;-87
2022/07/07 11:12:59;;;;;;;1.47;1.37;;;;;;;;;;4943123;29;20438;-89
2022/07/07 11:15:34;;;;;;;3.27;1.30;;;;;;;;;;4976506;28;20437;-87
2022/07/07 11:18:00;;;;;;;1.57;1.47;;;;;;;;;;4933309;28;20795;-88
2022/07/07 11:20:30;;;;;;;1.37;1.27;;;;;;;;;;4963944;28;20429;-88
2022/07/07 11:23:05;;;;;;;1.27;1.20;;;;;;;;;;4940749;28;20469;-87
2022/07/07 11:25:31;;;;;;;1.47;0.90;;;;;;;;;;4940192;28;20460;-87
2022/07/07 11:28:01;;;;;;;1.67;1.57;;;;;;;;;;4936069;28;20422;-88
2022/07/07 11:30:28;;;;;;;1.60;1.50;;;;;;;;;;4962898;28;20437;-89
2022/07/07 11:32:58;;;;;;;2.63;2.43;;;;;;;;;;4931211;28;20466;-89
2022/07/07 11:35:28;;;;;;;2.33;2.27;;;;;;;;;;4985487;28;20464;-88
2022/07/07 11:37:54;;;;;;;2.47;2.37;;;;;;;;;;4956913;28;20488;-88
2022/07/07 11:40:23;;;;;;;3.20;3.10;;;;;;;;;;4958818;28;20445;-88
2022/07/07 11:42:49;;;;;;;2.63;2.53;;;;;;;;;;4953589;28;20560;-86
2022/07/07 11:45:28;;;;;;;2.03;2.03;;;;;;;;;;4957616;29;20895;-89
2022/07/07 11:48:21;;;;;;;2.40;2.20;;;;;;;;;;4937033;29;20431;-89
2022/07/07 11:50:48;;;;;;;1.93;1.83;;;;;;;;;;4923467;29;20474;-88
2022/07/07 11:55:49;;;;;;;1.50;1.50;;;;;;;;;;4120365;23;21516;-87
2022/07/07 11:58:15;;;;;;;1.60;1.53;;;;;;;;;;4975985;28;20469;-92
2022/07/07 12:00:41;;;;;;;1.70;1.60;;;;;;;;;;4994578;28;20993;-91
2022/07/07 12:03:08;;;;;;;1.90;1.20;;;;;;;;;;4638683;28;10000268;-95
2022/07/07 12:05:43;;;;;;;1.00;1.00;;;;;;;;;;4986812;28;20194;-91
2022/07/07 12:08:09;;;;;;;2.53;1.13;;;;;;;;;;4997124;28;20440;-91
2022/07/07 12:10:36;;;;;;;1.20;1.20;;;;;;;;;;4988422;28;20439;-92
2022/07/07 12:13:05;;;;;;;1.23;1.13;;;;;;;;;;4980323;28;20456;-92
2022/07/07 12:15:34;;;;;;;1.43;1.13;;;;;;;;;;5004457;28;20441;-93
2022/07/07 12:18:03;;;;;;;1.07;1.00;;;;;;;;;;4983855;28;20445;-93
2022/07/07 12:20:30;;;;;;;1.60;1.60;;;;;;;;;;4980501;28;20439;-92
2022/07/07 12:22:57;;;;;;;2.03;1.93;;;;;;;;;;5001058;28;20471;-91
2022/07/07 12:25:28;;;;;;;1.20;1.20;;;;;;;;;;4982078;28;20426;-90
2022/07/07 12:27:59;;;;;;;1.27;1.27;;;;;;;;;;4991883;28;20452;-90
2022/07/07 12:30:26;;;;;;;1.23;1.23;;;;;;;;;;4984965;28;20456;-91
2022/07/07 12:32:58;;;;;;;1.30;1.30;;;;;;;;;;4980056;28;20441;-87
2022/07/07 12:35:35;;;;;;;1.37;1.30;;;;;;;;;;4977493;28;20485;-91
2022/07/07 12:38:02;;;;;;;1.60;1.20;;;;;;;;;;4988404;28;21191;-93
2022/07/07 12:40:29;;;;;;;1.07;1.07;;;;;;;;;;4991912;28;20430;-92
2022/07/07 12:42:56;;;;;;;1.10;1.10;;;;;;;;;;4992500;28;20480;-91
2022/07/07 12:45:22;;;;;;;1.90;1.10;;;;;;;;;;4993184;28;20429;-89
2022/07/07 12:47:49;;;;;;;2.03;1.47;;;;;;;;;;5001626;28;20483;-91
2022/07/07 12:50:16;;;;;;;1.87;1.70;;;;;;;;;;5004599;28;20456;-88
2022/07/07 12:52:53;;;;;;;1.63;1.50;;;;;;;;;;5005376;28;20456;-89
2022/07/07 12:55:19;;;;;;;1.80;1.27;;;;;;;;;;4977983;28;20452;-90
2022/07/07 12:57:45;;;;;;;1.50;1.40;;;;;;;;;;4995794;28;20464;-91
2022/07/07 13:00:22;;;;;;;1.60;1.40;;;;;;;;;;5007364;28;20420;-91
2022/07/07 13:02:48;;;;;;;1.17;1.17;;;;;;;;;;4977293;28;21066;-88
2022/07/07 13:05:15;;;;;;;1.40;1.30;;;;;;;;;;5005514;28;20428;-90
2022/07/07 13:07:41;;;;;;;1.40;1.40;;;;;;;;;;4983073;28;20461;-91
2022/07/07 13:10:07;;;;;;;2.60;1.50;;;;;;;;;;5000132;28;20438;-88
2022/07/07 13:12:33;;;;;;;2.87;1.93;;;;;;;;;;5009732;28;20471;-90
2022/07/07 13:14:59;;;;;;;1.20;1.20;;;;;;;;;;5004496;28;20960;-90
2022/07/07 13:17:25;;;;;;;1.30;1.20;;;;;;;;;;4992514;28;20448;-89
2022/07/07 13:19:51;;;;;;;1.57;1.53;;;;;;;;;;5004480;28;20500;-91
2022/07/07 13:22:17;;;;;;;1.57;1.47;;;;;;;;;;4994536;28;20476;-87
2022/07/07 13:24:43;;;;;;;1.27;1.27;;;;;;;;;;4980369;28;20429;-88
2022/07/07 13:27:09;;;;;;;2.47;1.50;;;;;;;;;;4999870;28;20526;-92
2022/07/07 13:29:35;;;;;;;1.50;1.50;;;;;;;;;;4996031;28;20425;-89
2022/07/07 13:32:01;;;;;;;1.77;1.67;;;;;;;;;;4987556;28;20461;-89
2022/07/07 13:34:27;;;;;;;2.50;2.10;;;;;;;;;;5004641;28;20461;-93
2022/07/07 13:36:54;;;;;;;2.50;1.93;;;;;;;;;;5162493;23;20478;-91
2022/07/07 13:39:20;;;;;;;2.10;1.60;;;;;;;;;;5004203;28;20450;-91
2022/07/07 13:41:50;;;;;;;2.20;2.10;;;;;;;;;;5260083;23;20478;-89
2022/07/07 13:44:16;;;;;;;2.00;1.90;;;;;;;;;;5033162;28;20807;-90
2022/07/07 13:46:45;;;;;;;1.60;1.60;;;;;;;;;;5015390;28;20447;-95
2022/07/07 13:49:11;;;;;;;2.20;1.20;;;;;;;;;;5238023;23;20488;-91
2022/07/07 13:51:40;;;;;;;1.37;1.37;;;;;;;;;;4955596;28;20447;-90
2022/07/07 13:54:06;;;;;;;2.30;2.20;;;;;;;;;;5016196;23;20479;-94
2022/07/07 13:56:32;;;;;;;1.57;1.30;;;;;;;;;;4990669;28;20433;-86
2022/07/07 13:58:58;;;;;;;1.40;1.40;;;;;;;;;;5081321;23;20493;-93
2022/07/07 14:01:29;;;;;;;1.53;1.53;;;;;;;;;;4993734;28;20481;-93
2022/07/07 14:03:58;;;;;;;1.50;1.40;;;;;;;;;;5418347;23;20489;-89
2022/07/07 14:09:00;;;;;;;1.53;1.53;;;;;;;;;;5231995;23;20493;-91
2022/07/07 14:11:26;;;;;;;1.33;1.33;;;;;;;;;;5245991;23;20448;-91
2022/07/07 14:13:52;;;;;;;1.70;1.40;;;;;;;;;;5096975;23;20496;-89
2022/07/07 14:16:18;;;;;;;1.80;1.70;;;;;;;;;;4997172;23;20511;-89
2022/07/07 14:18:50;;;;;;;1.77;1.70;;;;;;;;;;4937036;29;20467;-89
2022/07/07 14:21:16;;;;;;;1.90;1.80;;;;;;;;;;4960717;29;20465;-92
2022/07/07 14:23:43;;;;;;;2.63;1.40;;;;;;;;;;4984169;28;20458;-90
2022/07/07 14:26:09;;;;;;;1.80;1.80;;;;;;;;;;4944842;29;20434;-90
2022/07/07 14:28:35;;;;;;;2.33;2.03;;;;;;;;;;4945371;28;20444;-90
2022/07/07 14:31:01;;;;;;;1.60;1.17;;;;;;;;;;5149918;23;20486;-90
2022/07/07 14:33:28;;;;;;;2.40;1.20;;;;;;;;;;4957984;28;20435;-91
2022/07/07 14:35:54;;;;;;;2.93;2.83;;;;;;;;;;4953480;29;20454;-90
2022/07/07 14:38:20;;;;;;;2.50;1.77;;;;;;;;;;4936329;29;20462;-90
2022/07/07 14:40:46;;;;;;;2.10;1.40;;;;;;;;;;4969033;29;20438;-89
2022/07/07 14:43:12;;;;;;;3.13;1.30;;;;;;;;;;4933809;29;20474;-88
2022/07/07 14:45:42;;;;;;;3.00;1.30;;;;;;;;;;4935638;29;20439;-86
2022/07/07 14:48:08;;;;;;;0.97;0.97;;;;;;;;;;4932122;29;20412;-90
2022/07/07 14:50:34;;;;;;;1.00;1.00;;;;;;;;;;4937503;29;20498;-90
2022/07/07 14:53:03;;;;;;;1.00;1.00;;;;;;;;;;4939250;29;20452;-91
2022/07/07 14:55:29;;;;;;;7.63;1.70;;;;;;;;;;4930565;29;20449;-88
2022/07/07 14:57:55;;;;;;;1.83;1.40;;;;;;;;;;4914460;29;20440;-91
2022/07/07 15:00:22;;;;;;;1.60;1.50;;;;;;;;;;4930099;29;20511;-90
2022/07/07 15:02:48;;;;;;;1.57;1.57;;;;;;;;;;4938743;29;20463;-89
2022/07/07 15:05:14;;;;;;;4.83;1.83;;;;;;;;;;4919298;29;20805;-89
2022/07/07 15:07:42;;;;;;;1.90;1.80;;;;;;;;;;4908937;29;20437;-89
2022/07/07 15:10:08;;;;;;;3.00;2.80;;;;;;;;;;4910252;29;20436;-87
2022/07/07 15:12:35;;;;;;;3.03;2.83;;;;;;;;;;4911356;29;20441;-89
2022/07/07 15:15:01;;;;;;;2.73;1.73;;;;;;;;;;4915368;29;20432;-88
2022/07/07 15:17:29;;;;;;;5.13;2.37;;;;;;;;;;4932377;29;20415;-91
2022/07/07 15:19:56;;;;;;;2.70;2.30;;;;;;;;;;4934282;29;20501;-91
2022/07/07 15:22:23;;;;;;;3.77;2.00;;;;;;;;;;4949066;29;20475;-91
2022/07/07 15:24:50;;;;;;;2.13;1.93;;;;;;;;;;4927521;29;20570;-86
2022/07/07 15:27:19;;;;;;;3.20;2.30;;;;;;;;;;4916921;29;20943;-86
2022/07/07 15:29:46;;;;;;;1.90;1.80;;;;;;;;;;4935257;29;20419;-90
2022/07/07 15:32:12;;;;;;;4.67;2.27;;;;;;;;;;4947092;29;20465;-89
2022/07/07 15:34:38;;;;;;;2.43;1.90;;;;;;;;;;4967739;29;20464;-91
2022/07/07 15:37:04;;;;;;;2.03;1.77;;;;;;;;;;4955878;29;20462;-90
2022/07/07 15:39:31;;;;;;;1.73;1.63;;;;;;;;;;4968549;29;20502;-87
2022/07/07 15:41:57;;;;;;;1.97;1.87;;;;;;;;;;4962408;29;20486;-92
2022/07/07 15:44:23;;;;;;;2.93;2.27;;;;;;;;;;4950181;29;20449;-89
2022/07/07 15:46:51;;;;;;;2.53;1.83;;;;;;;;;;4961409;29;20526;-91
2022/07/07 15:49:17;;;;;;;3.30;2.70;;;;;;;;;;4948671;29;20495;-90
2022/07/07 15:51:43;;;;;;;3.50;1.80;;;;;;;;;;4944566;29;20443;-88
2022/07/07 15:54:09;;;;;;;8.33;2.77;;;;;;;;;;4959978;28;20471;-90
2022/07/07 15:56:36;;;;;;;4.47;2.20;;;;;;;;;;4952716;29;20482;-90
2022/07/07 15:59:02;;;;;;;2.20;2.00;;;;;;;;;;4958647;29;20439;-90
2022/07/07 16:01:28;;;;;;;2.57;2.20;;;;;;;;;;4964923;29;20450;-92
2022/07/07 16:06:39;;;;;;;1.83;1.73;;;;;;;;;;4942934;29;20446;-89
2022/07/07 16:09:06;;;;;;;1.90;1.80;;;;;;;;;;4949674;29;20443;-89
2022/07/07 16:11:32;;;;;;;3.77;2.00;;;;;;;;;;4955553;29;20438;-91
2022/07/07 16:13:58;;;;;;;2.67;2.07;;;;;;;;;;4945652;29;20425;-89
2022/07/07 16:16:27;;;;;;;4.45;1.95;;;;;;;;;;4266215;29;10000731;-91
2022/07/07 16:18:53;;;;;;;4.50;1.90;;;;;;;;;;4964135;29;20202;-91
2022/07/07 16:21:22;;;;;;;4.57;2.10;;;;;;;;;;4948989;29;20473;-93
2022/07/07 16:24:24;;;;;;;5.50;2.70;;;;;;;;;;4961661;28;20489;-93
2022/07/07 16:26:50;;;;;;;7.27;2.70;;;;;;;;;;4952164;29;20750;-91
2022/07/07 16:29:16;;;;;;;4.10;2.00;;;;;;;;;;4951526;29;20458;-89
2022/07/07 16:31:43;;;;;;;1.93;1.83;;;;;;;;;;4953691;29;20451;-90
2022/07/07 16:34:12;;;;;;;4.27;2.40;;;;;;;;;;4909282;29;20435;-90
2022/07/07 16:36:39;;;;;;;8.27;7.70;;;;;;;;;;4910343;29;20443;-89
2022/07/07 16:39:21;;;;;;;2.90;2.20;;;;;;;;;;4906537;29;21179;-92
2022/07/07 16:41:48;;;;;;;3.30;1.67;;;;;;;;;;4899878;29;20498;-88